Moku Pahu — WBWK — position and weather

sailwx.info

Track history (hours):
 
Tides and Currents Weather Stations Pressure Air Temp Water Temp Dewpoint Dewpoint Depression Visibility Wind Speed Wind Dir Waves Ship Positions

Moku Pahu

Owner: American Ship Management, LLC., Concord, CA. More information available from US FCC via Universal Licensing System and Coast Guard Vessel Documentation Center.

Last reported at 2016-Jan-27 01:33 UTC. Time now 2016-Feb-12 18:08 UTC.
Position N 45°15' W 125°11'.
Warning: this ship's position is 16 days out of date.

Type: Ship. MMSI: 366857000.

Date/timePositionNaut miles runAvg speedWind from/ knotsBaromVisibWave heightAir tempDewpointWater temp
2016-Jan-27 01:33N 45°15' W 125°11'1211.7
2016-Jan-27 00:32N 45°27' W 125°04'1111.7
2016-Jan-26 23:33N 45°37' W 124°58'1211.6
2016-Jan-26 22:33N 45°48' W 124°51'1111.1
2016-Jan-26 21:33N 45°55' W 124°39'1111.1
2016-Jan-26 20:33N 46°02' W 124°27'9 9.1
2016-Jan-26 19:33N 46°08' W 124°18'7 7.1
2016-Jan-26 18:34N 46°12' W 124°09'9 8.9
2016-Jan-26 17:33N 46°12' W 123°56'10 9.6
2016-Jan-26 16:33N 46°14' W 123°43'1211.9
2016-Jan-26 15:33N 46°14' W 123°25'8 8.3
2016-Jan-26 14:33N 46°09' W 123°15'1111.3
2016-Jan-26 13:33N 46°07' W 122°59'2 1.9
2016-Jan-26 12:33N 46°06' W 122°57'0 0.0
2016-Jan-26 11:31N 46°06' W 122°57'0 0.0
2016-Jan-26 10:32N 46°06' W 122°57'0 0.0
2016-Jan-26 09:32N 46°06' W 122°57'0 0.0
2016-Jan-26 08:33N 46°06' W 122°57'0 0.0
2016-Jan-26 07:34N 46°06' W 122°57'0 0.0
2016-Jan-26 06:28N 46°06' W 122°57'0 0.0
2016-Jan-26 05:26N 46°06' W 122°57'0 0.0
2016-Jan-26 04:29N 46°06' W 122°57'0 0.0
2016-Jan-26 03:24N 46°06' W 122°57'0 0.0
2016-Jan-26 02:33N 46°06' W 122°57'0 0.0
2016-Jan-26 01:31N 46°06' W 122°57'0 0.0
2016-Jan-26 00:32N 46°06' W 122°57'0 0.0
2016-Jan-25 23:23N 46°06' W 122°57'0 0.0
2016-Jan-25 22:33N 46°06' W 122°57'0 0.0
2016-Jan-25 21:33N 46°06' W 122°57'0 0.0
2016-Jan-25 20:31N 46°06' W 122°57'0 0.0
2016-Jan-25 19:32N 46°06' W 122°57'0 0.0
2016-Jan-25 18:32N 46°06' W 122°57'0 0.0
2016-Jan-25 17:27N 46°06' W 122°57'0 0.0
2016-Jan-25 16:31N 46°06' W 122°57'0 0.0
2016-Jan-25 15:28N 46°06' W 122°57'0 0.0
2016-Jan-25 14:32N 46°06' W 122°57'0 0.0
2016-Jan-25 13:32N 46°06' W 122°57'0 0.4
2016-Jan-25 12:33N 46°06' W 122°56'7 7.2
2016-Jan-25 11:33N 45°60' W 122°51'1312.6
2016-Jan-25 10:33N 45°48' W 122°47'9 7.4
2016-Jan-25 09:21N 45°39' W 122°46'0 0.0
2016-Jan-25 08:33N 45°39' W 122°46'0 0.0
2016-Jan-25 07:28N 45°39' W 122°46'0 0.0
2016-Jan-25 06:31N 45°39' W 122°46'0 0.0
2016-Jan-25 05:32N 45°39' W 122°46'0 0.0
2016-Jan-25 04:33N 45°39' W 122°46'0 0.0
2016-Jan-25 03:18N 45°39' W 122°46'0 0.0
2016-Jan-25 02:28N 45°39' W 122°46'0 0.0
2016-Jan-25 01:31N 45°39' W 122°46'0 0.0
2016-Jan-25 00:20N 45°39' W 122°46'0 0.0
2016-Jan-24 23:32N 45°39' W 122°46'0 0.0
2016-Jan-24 22:33N 45°39' W 122°46'0 0.0
2016-Jan-24 21:25N 45°39' W 122°46'0 0.0
2016-Jan-24 20:31N 45°39' W 122°46'0 0.0
2016-Jan-24 19:32N 45°39' W 122°46'0 0.0
2016-Jan-24 18:24N 45°39' W 122°46'0 0.0
2016-Jan-24 17:30N 45°39' W 122°46'0 0.0
2016-Jan-24 16:31N 45°39' W 122°46'0 0.0
2016-Jan-24 15:31N 45°39' W 122°46'0 0.0
2016-Jan-24 14:23N 45°39' W 122°46'0 0.0
2016-Jan-24 13:33N 45°39' W 122°46'0 0.0
2016-Jan-24 12:30N 45°39' W 122°46'0 0.0
2016-Jan-24 11:31N 45°39' W 122°46'0 0.0
2016-Jan-24 10:31N 45°39' W 122°46'0 0.0
2016-Jan-24 09:32N 45°39' W 122°46'0 0.0
2016-Jan-24 08:33N 45°39' W 122°46'0 0.0
2016-Jan-24 07:33N 45°39' W 122°46'0 0.0
2016-Jan-24 06:31N 45°39' W 122°46'0 0.0
2016-Jan-24 05:31N 45°39' W 122°46'0 0.0
2016-Jan-24 04:26N 45°39' W 122°46'0 0.0
2016-Jan-24 03:33N 45°39' W 122°46'0 0.0
2016-Jan-24 02:24N 45°39' W 122°46'0 0.0
2016-Jan-24 01:31N 45°39' W 122°46'0 0.0
2016-Jan-24 00:32N 45°39' W 122°46'0 0.0
2016-Jan-23 23:29N 45°39' W 122°46'0 0.0
2016-Jan-23 22:33N 45°39' W 122°46'0 0.0
2016-Jan-23 21:33N 45°39' W 122°46'0 0.0
2016-Jan-23 20:31N 45°39' W 122°46'0 0.0
2016-Jan-23 19:32N 45°39' W 122°46'0 0.0
2016-Jan-23 18:32N 45°39' W 122°46'0 0.0
2016-Jan-23 17:24N 45°39' W 122°46'0 0.0
2016-Jan-23 16:33N 45°39' W 122°46'0 0.0
2016-Jan-23 15:25N 45°39' W 122°46'0 0.0
2016-Jan-23 14:29N 45°39' W 122°46'0 0.0
2016-Jan-23 13:29N 45°39' W 122°46'0 0.0
2016-Jan-23 12:33N 45°39' W 122°46'0 0.2
2016-Jan-23 11:34N 45°39' W 122°46'2 2.0
2016-Jan-23 10:33N 45°38' W 122°43'0 0.1
2016-Jan-23 09:30N 45°38' W 122°43'0 0.0
2016-Jan-23 08:28N 45°38' W 122°43'0 0.0
2016-Jan-23 07:28N 45°38' W 122°43'0 0.0
2016-Jan-23 06:32N 45°38' W 122°43'0 0.0
2016-Jan-23 05:27N 45°38' W 122°43'0 0.0
2016-Jan-23 04:21N 45°38' W 122°43'0 0.0
2016-Jan-23 03:25N 45°38' W 122°43'0 0.0
2016-Jan-23 02:13N 45°38' W 122°43'0 0.1
2016-Jan-23 01:29N 45°38' W 122°43'0 0.0
2016-Jan-23 00:33N 45°38' W 122°43'0 0.0
2016-Jan-22 23:30N 45°38' W 122°43'0 0.0
2016-Jan-22 22:28N 45°38' W 122°43'0 0.0
2016-Jan-22 21:25N 45°38' W 122°43'0 0.0
2016-Jan-22 20:32N 45°38' W 122°43'0 0.0
2016-Jan-22 19:24N 45°38' W 122°43'0 0.0
2016-Jan-22 18:21N 45°38' W 122°43'0 0.1
2016-Jan-22 17:31N 45°38' W 122°43'0 0.0
2016-Jan-22 16:28N 45°38' W 122°43'0 0.0
2016-Jan-22 15:26N 45°38' W 122°43'0 0.0
2016-Jan-22 14:30N 45°38' W 122°43'0 0.0
2016-Jan-22 13:24N 45°38' W 122°43'0 0.0
2016-Jan-22 12:28N 45°38' W 122°43'0 0.0
2016-Jan-22 11:31N 45°38' W 122°43'0 0.0
2016-Jan-22 10:23N 45°38' W 122°43'0 0.0
2016-Jan-22 09:24N 45°38' W 122°43'0 0.0
2016-Jan-22 08:33N 45°38' W 122°43'0 0.0
2016-Jan-22 07:31N 45°38' W 122°43'0 0.0
2016-Jan-22 06:31N 45°38' W 122°43'0 0.0
2016-Jan-22 05:29N 45°38' W 122°43'0 0.0
2016-Jan-22 04:30N 45°38' W 122°43'0 0.0
2016-Jan-22 03:30N 45°38' W 122°43'0 0.0
2016-Jan-22 02:22N 45°38' W 122°43'0 0.0
2016-Jan-22 01:26N 45°38' W 122°43'0 0.0
2016-Jan-22 00:29N 45°38' W 122°43'0 0.0
2016-Jan-21 23:33N 45°38' W 122°43'0 0.0
2016-Jan-21 22:24N 45°38' W 122°43'0 0.0
2016-Jan-21 21:31N 45°38' W 122°43'0 0.0
2016-Jan-21 20:28N 45°38' W 122°43'0 0.0
2016-Jan-21 19:23N 45°38' W 122°43'0 0.0
2016-Jan-21 18:33N 45°38' W 122°43'0 0.0
2016-Jan-21 17:33N 45°38' W 122°43'0 0.0
2016-Jan-21 16:28N 45°38' W 122°43'0 0.0
2016-Jan-21 15:29N 45°38' W 122°43'0 0.0
2016-Jan-21 14:32N 45°38' W 122°43'0 0.0
2016-Jan-21 13:27N 45°38' W 122°43'0 0.0
2016-Jan-21 12:33N 45°38' W 122°43'0 0.0
2016-Jan-21 11:25N 45°38' W 122°43'0 0.0
2016-Jan-21 10:31N 45°38' W 122°43'0 0.0
2016-Jan-21 09:32N 45°38' W 122°43'0 0.0
2016-Jan-21 08:24N 45°38' W 122°43'0 0.1
2016-Jan-21 07:33N 45°38' W 122°43'0 0.0
2016-Jan-21 06:31N 45°38' W 122°43'0 0.0
2016-Jan-21 05:31N 45°38' W 122°43'0 0.0
2016-Jan-21 04:32N 45°38' W 122°43'0 0.0
2016-Jan-21 03:33N 45°38' W 122°43'0 0.0
2016-Jan-21 02:33N 45°38' W 122°43'0 0.0
2016-Jan-21 01:28N 45°38' W 122°43'0 0.0
2016-Jan-21 00:17N 45°38' W 122°43'0 0.1
2016-Jan-20 23:29N 45°38' W 122°43'0 0.0
2016-Jan-20 22:30N 45°38' W 122°43'0 0.0
2016-Jan-20 21:27N 45°38' W 122°43'0 0.0
2016-Jan-20 20:31N 45°38' W 122°43'0 0.0
2016-Jan-20 19:31N 45°38' W 122°43'0 0.0
2016-Jan-20 18:14N 45°38' W 122°43'0 0.0
2016-Jan-20 17:24N 45°38' W 122°43'0 0.0
2016-Jan-20 16:33N 45°38' W 122°43'0 0.0
2016-Jan-20 15:31N 45°38' W 122°43'0 0.0
2016-Jan-20 14:28N 45°38' W 122°43'0 0.0
2016-Jan-20 13:11N 45°38' W 122°43'0 0.0
2016-Jan-20 12:29N 45°38' W 122°43'0 0.0
2016-Jan-20 11:30N 45°38' W 122°43'0 0.0
2016-Jan-20 10:31N 45°38' W 122°43'0 0.0
2016-Jan-20 09:28N 45°38' W 122°43'0 0.0
2016-Jan-20 08:26N 45°38' W 122°43'0 0.0
2016-Jan-20 07:32N 45°38' W 122°43'0 0.0
2016-Jan-20 06:33N 45°38' W 122°43'0 0.0
2016-Jan-20 05:31N 45°38' W 122°43'0 0.0
2016-Jan-20 04:28N 45°38' W 122°43'0 0.0
2016-Jan-20 03:26N 45°38' W 122°43'0 0.0
2016-Jan-20 02:29N 45°38' W 122°43'0 0.0
2016-Jan-20 01:33N 45°38' W 122°43'0 0.0
2016-Jan-20 00:19N 45°38' W 122°43'0 0.0
2016-Jan-19 23:28N 45°38' W 122°43'0 0.0
2016-Jan-19 22:32N 45°38' W 122°43'0 0.0
2016-Jan-19 21:32N 45°38' W 122°43'0 0.0
2016-Jan-19 20:30N 45°38' W 122°43'0 0.0
2016-Jan-19 19:28N 45°38' W 122°43'0 0.0
2016-Jan-19 18:28N 45°38' W 122°43'0 0.0
2016-Jan-19 17:29N 45°38' W 122°43'0 0.0
2016-Jan-19 16:29N 45°38' W 122°43'0 0.0
2016-Jan-19 15:33N 45°38' W 122°43'0 0.0
2016-Jan-19 14:31N 45°38' W 122°43'0 0.0
2016-Jan-19 13:28N 45°38' W 122°43'0 0.0
2016-Jan-19 12:32N 45°38' W 122°43'0 0.0
2016-Jan-19 11:20N 45°38' W 122°43'0 0.0
2016-Jan-19 10:15N 45°38' W 122°43'0 0.0
2016-Jan-19 09:19N 45°38' W 122°43'0 0.0
2016-Jan-19 08:28N 45°38' W 122°43'0 0.0
2016-Jan-19 07:29N 45°38' W 122°43'0 0.0
2016-Jan-19 06:29N 45°38' W 122°43'0 0.0
2016-Jan-19 05:30N 45°38' W 122°43'0 0.0
2016-Jan-19 04:34N 45°38' W 122°43'0 0.0
2016-Jan-19 03:31N 45°38' W 122°43'0 0.0
2016-Jan-19 02:26N 45°38' W 122°43'0 0.0
2016-Jan-19 01:26N 45°38' W 122°43'0 0.0
2016-Jan-19 00:33N 45°38' W 122°43'0 0.0
2016-Jan-18 23:31N 45°38' W 122°43'0 0.0
2016-Jan-18 22:28N 45°38' W 122°43'0 0.0
2016-Jan-18 21:23N 45°38' W 122°43'0 0.0
2016-Jan-18 20:24N 45°38' W 122°43'0 0.0
2016-Jan-18 19:30N 45°38' W 122°43'0 0.0
2016-Jan-18 18:31N 45°38' W 122°43'0 0.0
2016-Jan-18 17:31N 45°38' W 122°43'0 0.0
2016-Jan-18 16:32N 45°38' W 122°43'0 0.0
2016-Jan-18 15:29N 45°38' W 122°43'0 0.0
2016-Jan-18 14:33N 45°38' W 122°43'0 0.0
2016-Jan-18 13:28N 45°38' W 122°43'0 0.0
2016-Jan-18 12:31N 45°38' W 122°43'0 0.0
2016-Jan-18 11:32N 45°38' W 122°43'0 0.0
2016-Jan-18 10:29N 45°38' W 122°43'0 0.0
2016-Jan-18 09:33N 45°38' W 122°43'0 0.0
2016-Jan-18 08:31N 45°38' W 122°43'0 0.0
2016-Jan-18 07:28N 45°38' W 122°43'0 0.0
2016-Jan-18 06:26N 45°38' W 122°43'0 0.0
2016-Jan-18 05:33N 45°38' W 122°43'0 0.0
2016-Jan-18 04:33N 45°38' W 122°43'0 0.0
2016-Jan-18 03:28N 45°38' W 122°43'0 0.0
2016-Jan-18 02:28N 45°38' W 122°43'0 0.0
2016-Jan-18 01:32N 45°38' W 122°43'0 0.0
2016-Jan-18 00:27N 45°38' W 122°43'0 0.0
2016-Jan-17 23:33N 45°38' W 122°43'0 0.0
2016-Jan-17 22:25N 45°38' W 122°43'0 0.0
2016-Jan-17 21:31N 45°38' W 122°43'0 0.0
2016-Jan-17 19:33N 45°38' W 122°43'0 0.0
2016-Jan-17 18:33N 45°38' W 122°43'0 0.0
2016-Jan-17 17:22N 45°38' W 122°43'0 0.0
2016-Jan-17 16:31N 45°38' W 122°43'0 0.0
2016-Jan-17 15:23N 45°38' W 122°43'0 0.0
2016-Jan-17 14:30N 45°38' W 122°43'0 0.0
2016-Jan-17 13:27N 45°38' W 122°43'0 0.0
2016-Jan-17 12:28N 45°38' W 122°43'0 0.0
2016-Jan-17 11:31N 45°38' W 122°43'0 0.0
2016-Jan-17 10:32N 45°38' W 122°43'0 0.0
2016-Jan-17 09:33N 45°38' W 122°43'0 0.0
2016-Jan-17 08:30N 45°38' W 122°43'0 0.0
2016-Jan-17 07:31N 45°38' W 122°43'0 0.0
2016-Jan-17 06:32N 45°38' W 122°43'0 0.0
2016-Jan-17 05:32N 45°38' W 122°43'0 0.0
2016-Jan-17 04:33N 45°38' W 122°43'0 0.0
2016-Jan-17 03:33N 45°38' W 122°43'0 0.0
2016-Jan-17 02:25N 45°38' W 122°43'  
Track history (hours):
 
Tides and Currents Weather Stations Pressure Air Temp Water Temp Dewpoint Dewpoint Depression Visibility Wind Speed Wind Dir Waves Ship Positions

Moku Pahu

Owner: American Ship Management, LLC., Concord, CA. More information available from US FCC via Universal Licensing System and Coast Guard Vessel Documentation Center.

Last reported at 2016-Jan-27 01:33 UTC. Time now 2016-Feb-12 18:08 UTC.
Position N 45°15' W 125°11'.
Warning: this ship's position is 16 days out of date.

Type: Ship. MMSI: 366857000.

Date/timePositionNaut miles runAvg speedWind from/ knotsBaromVisibWave heightAir tempDewpointWater temp
2016-Jan-27 01:33N 45°15' W 125°11'1211.7
2016-Jan-27 00:32N 45°27' W 125°04'1111.7
2016-Jan-26 23:33N 45°37' W 124°58'1211.6
2016-Jan-26 22:33N 45°48' W 124°51'1111.1
2016-Jan-26 21:33N 45°55' W 124°39'1111.1
2016-Jan-26 20:33N 46°02' W 124°27'9 9.1
2016-Jan-26 19:33N 46°08' W 124°18'7 7.1
2016-Jan-26 18:34N 46°12' W 124°09'9 8.9
2016-Jan-26 17:33N 46°12' W 123°56'10 9.6
2016-Jan-26 16:33N 46°14' W 123°43'1211.9
2016-Jan-26 15:33N 46°14' W 123°25'8 8.3
2016-Jan-26 14:33N 46°09' W 123°15'1111.3
2016-Jan-26 13:33N 46°07' W 122°59'2 1.9
2016-Jan-26 12:33N 46°06' W 122°57'0 0.0
2016-Jan-26 11:31N 46°06' W 122°57'0 0.0
2016-Jan-26 10:32N 46°06' W 122°57'0 0.0
2016-Jan-26 09:32N 46°06' W 122°57'0 0.0
2016-Jan-26 08:33N 46°06' W 122°57'0 0.0
2016-Jan-26 07:34N 46°06' W 122°57'0 0.0
2016-Jan-26 06:28N 46°06' W 122°57'0 0.0
2016-Jan-26 05:26N 46°06' W 122°57'0 0.0
2016-Jan-26 04:29N 46°06' W 122°57'0 0.0
2016-Jan-26 03:24N 46°06' W 122°57'0 0.0
2016-Jan-26 02:33N 46°06' W 122°57'0 0.0
2016-Jan-26 01:31N 46°06' W 122°57'0 0.0
2016-Jan-26 00:32N 46°06' W 122°57'0 0.0
2016-Jan-25 23:23N 46°06' W 122°57'0 0.0
2016-Jan-25 22:33N 46°06' W 122°57'0 0.0
2016-Jan-25 21:33N 46°06' W 122°57'0 0.0
2016-Jan-25 20:31N 46°06' W 122°57'0 0.0
2016-Jan-25 19:32N 46°06' W 122°57'0 0.0
2016-Jan-25 18:32N 46°06' W 122°57'0 0.0
2016-Jan-25 17:27N 46°06' W 122°57'0 0.0
2016-Jan-25 16:31N 46°06' W 122°57'0 0.0
2016-Jan-25 15:28N 46°06' W 122°57'0 0.0
2016-Jan-25 14:32N 46°06' W 122°57'0 0.0
2016-Jan-25 13:32N 46°06' W 122°57'0 0.4
2016-Jan-25 12:33N 46°06' W 122°56'7 7.2
2016-Jan-25 11:33N 45°60' W 122°51'1312.6
2016-Jan-25 10:33N 45°48' W 122°47'9 7.4
2016-Jan-25 09:21N 45°39' W 122°46'0 0.0
2016-Jan-25 08:33N 45°39' W 122°46'0 0.0
2016-Jan-25 07:28N 45°39' W 122°46'0 0.0
2016-Jan-25 06:31N 45°39' W 122°46'0 0.0
2016-Jan-25 05:32N 45°39' W 122°46'0 0.0
2016-Jan-25 04:33N 45°39' W 122°46'0 0.0
2016-Jan-25 03:18N 45°39' W 122°46'0 0.0
2016-Jan-25 02:28N 45°39' W 122°46'0 0.0
2016-Jan-25 01:31N 45°39' W 122°46'0 0.0
2016-Jan-25 00:20N 45°39' W 122°46'0 0.0
2016-Jan-24 23:32N 45°39' W 122°46'0 0.0
2016-Jan-24 22:33N 45°39' W 122°46'0 0.0
2016-Jan-24 21:25N 45°39' W 122°46'0 0.0
2016-Jan-24 20:31N 45°39' W 122°46'0 0.0
2016-Jan-24 19:32N 45°39' W 122°46'0 0.0
2016-Jan-24 18:24N 45°39' W 122°46'0 0.0
2016-Jan-24 17:30N 45°39' W 122°46'0 0.0
2016-Jan-24 16:31N 45°39' W 122°46'0 0.0
2016-Jan-24 15:31N 45°39' W 122°46'0 0.0
2016-Jan-24 14:23N 45°39' W 122°46'0 0.0
2016-Jan-24 13:33N 45°39' W 122°46'0 0.0
2016-Jan-24 12:30N 45°39' W 122°46'0 0.0
2016-Jan-24 11:31N 45°39' W 122°46'0 0.0
2016-Jan-24 10:31N 45°39' W 122°46'0 0.0
2016-Jan-24 09:32N 45°39' W 122°46'0 0.0
2016-Jan-24 08:33N 45°39' W 122°46'0 0.0
2016-Jan-24 07:33N 45°39' W 122°46'0 0.0
2016-Jan-24 06:31N 45°39' W 122°46'0 0.0
2016-Jan-24 05:31N 45°39' W 122°46'0 0.0
2016-Jan-24 04:26N 45°39' W 122°46'0 0.0
2016-Jan-24 03:33N 45°39' W 122°46'0 0.0
2016-Jan-24 02:24N 45°39' W 122°46'0 0.0
2016-Jan-24 01:31N 45°39' W 122°46'0 0.0
2016-Jan-24 00:32N 45°39' W 122°46'0 0.0
2016-Jan-23 23:29N 45°39' W 122°46'0 0.0
2016-Jan-23 22:33N 45°39' W 122°46'0 0.0
2016-Jan-23 21:33N 45°39' W 122°46'0 0.0
2016-Jan-23 20:31N 45°39' W 122°46'0 0.0
2016-Jan-23 19:32N 45°39' W 122°46'0 0.0
2016-Jan-23 18:32N 45°39' W 122°46'0 0.0
2016-Jan-23 17:24N 45°39' W 122°46'0 0.0
2016-Jan-23 16:33N 45°39' W 122°46'0 0.0
2016-Jan-23 15:25N 45°39' W 122°46'0 0.0
2016-Jan-23 14:29N 45°39' W 122°46'0 0.0
2016-Jan-23 13:29N 45°39' W 122°46'0 0.0
2016-Jan-23 12:33N 45°39' W 122°46'0 0.2
2016-Jan-23 11:34N 45°39' W 122°46'2 2.0
2016-Jan-23 10:33N 45°38' W 122°43'0 0.1
2016-Jan-23 09:30N 45°38' W 122°43'0 0.0
2016-Jan-23 08:28N 45°38' W 122°43'0 0.0
2016-Jan-23 07:28N 45°38' W 122°43'0 0.0
2016-Jan-23 06:32N 45°38' W 122°43'0 0.0
2016-Jan-23 05:27N 45°38' W 122°43'0 0.0
2016-Jan-23 04:21N 45°38' W 122°43'0 0.0
2016-Jan-23 03:25N 45°38' W 122°43'0 0.0
2016-Jan-23 02:13N 45°38' W 122°43'0 0.1
2016-Jan-23 01:29N 45°38' W 122°43'0 0.0
2016-Jan-23 00:33N 45°38' W 122°43'0 0.0
2016-Jan-22 23:30N 45°38' W 122°43'0 0.0
2016-Jan-22 22:28N 45°38' W 122°43'0 0.0
2016-Jan-22 21:25N 45°38' W 122°43'0 0.0
2016-Jan-22 20:32N 45°38' W 122°43'0 0.0
2016-Jan-22 19:24N 45°38' W 122°43'0 0.0
2016-Jan-22 18:21N 45°38' W 122°43'0 0.1
2016-Jan-22 17:31N 45°38' W 122°43'0 0.0
2016-Jan-22 16:28N 45°38' W 122°43'0 0.0
2016-Jan-22 15:26N 45°38' W 122°43'0 0.0
2016-Jan-22 14:30N 45°38' W 122°43'0 0.0
2016-Jan-22 13:24N 45°38' W 122°43'0 0.0
2016-Jan-22 12:28N 45°38' W 122°43'0 0.0
2016-Jan-22 11:31N 45°38' W 122°43'0 0.0
2016-Jan-22 10:23N 45°38' W 122°43'0 0.0
2016-Jan-22 09:24N 45°38' W 122°43'0 0.0
2016-Jan-22 08:33N 45°38' W 122°43'0 0.0
2016-Jan-22 07:31N 45°38' W 122°43'0 0.0
2016-Jan-22 06:31N 45°38' W 122°43'0 0.0
2016-Jan-22 05:29N 45°38' W 122°43'0 0.0
2016-Jan-22 04:30N 45°38' W 122°43'0 0.0
2016-Jan-22 03:30N 45°38' W 122°43'0 0.0
2016-Jan-22 02:22N 45°38' W 122°43'0 0.0
2016-Jan-22 01:26N 45°38' W 122°43'0 0.0
2016-Jan-22 00:29N 45°38' W 122°43'0 0.0
2016-Jan-21 23:33N 45°38' W 122°43'0 0.0
2016-Jan-21 22:24N 45°38' W 122°43'0 0.0
2016-Jan-21 21:31N 45°38' W 122°43'0 0.0
2016-Jan-21 20:28N 45°38' W 122°43'0 0.0
2016-Jan-21 19:23N 45°38' W 122°43'0 0.0
2016-Jan-21 18:33N 45°38' W 122°43'0 0.0
2016-Jan-21 17:33N 45°38' W 122°43'0 0.0
2016-Jan-21 16:28N 45°38' W 122°43'0 0.0
2016-Jan-21 15:29N 45°38' W 122°43'0 0.0
2016-Jan-21 14:32N 45°38' W 122°43'0 0.0
2016-Jan-21 13:27N 45°38' W 122°43'0 0.0
2016-Jan-21 12:33N 45°38' W 122°43'0 0.0
2016-Jan-21 11:25N 45°38' W 122°43'0 0.0
2016-Jan-21 10:31N 45°38' W 122°43'0 0.0
2016-Jan-21 09:32N 45°38' W 122°43'0 0.0
2016-Jan-21 08:24N 45°38' W 122°43'0 0.1
2016-Jan-21 07:33N 45°38' W 122°43'0 0.0
2016-Jan-21 06:31N 45°38' W 122°43'0 0.0
2016-Jan-21 05:31N 45°38' W 122°43'0 0.0
2016-Jan-21 04:32N 45°38' W 122°43'0 0.0
2016-Jan-21 03:33N 45°38' W 122°43'0 0.0
2016-Jan-21 02:33N 45°38' W 122°43'0 0.0
2016-Jan-21 01:28N 45°38' W 122°43'0 0.0
2016-Jan-21 00:17N 45°38' W 122°43'0 0.1
2016-Jan-20 23:29N 45°38' W 122°43'0 0.0
2016-Jan-20 22:30N 45°38' W 122°43'0 0.0
2016-Jan-20 21:27N 45°38' W 122°43'0 0.0
2016-Jan-20 20:31N 45°38' W 122°43'0 0.0
2016-Jan-20 19:31N 45°38' W 122°43'0 0.0
2016-Jan-20 18:14N 45°38' W 122°43'0 0.0
2016-Jan-20 17:24N 45°38' W 122°43'0 0.0
2016-Jan-20 16:33N 45°38' W 122°43'0 0.0
2016-Jan-20 15:31N 45°38' W 122°43'0 0.0
2016-Jan-20 14:28N 45°38' W 122°43'0 0.0
2016-Jan-20 13:11N 45°38' W 122°43'0 0.0
2016-Jan-20 12:29N 45°38' W 122°43'0 0.0
2016-Jan-20 11:30N 45°38' W 122°43'0 0.0
2016-Jan-20 10:31N 45°38' W 122°43'0 0.0
2016-Jan-20 09:28N 45°38' W 122°43'0 0.0
2016-Jan-20 08:26N 45°38' W 122°43'0 0.0
2016-Jan-20 07:32N 45°38' W 122°43'0 0.0
2016-Jan-20 06:33N 45°38' W 122°43'0 0.0
2016-Jan-20 05:31N 45°38' W 122°43'0 0.0
2016-Jan-20 04:28N 45°38' W 122°43'0 0.0
2016-Jan-20 03:26N 45°38' W 122°43'0 0.0
2016-Jan-20 02:29N 45°38' W 122°43'0 0.0
2016-Jan-20 01:33N 45°38' W 122°43'0 0.0
2016-Jan-20 00:19N 45°38' W 122°43'0 0.0
2016-Jan-19 23:28N 45°38' W 122°43'0 0.0
2016-Jan-19 22:32N 45°38' W 122°43'0 0.0
2016-Jan-19 21:32N 45°38' W 122°43'0 0.0
2016-Jan-19 20:30N 45°38' W 122°43'0 0.0
2016-Jan-19 19:28N 45°38' W 122°43'0 0.0
2016-Jan-19 18:28N 45°38' W 122°43'0 0.0
2016-Jan-19 17:29N 45°38' W 122°43'0 0.0
2016-Jan-19 16:29N 45°38' W 122°43'0 0.0
2016-Jan-19 15:33N 45°38' W 122°43'0 0.0
2016-Jan-19 14:31N 45°38' W 122°43'0 0.0
2016-Jan-19 13:28N 45°38' W 122°43'0 0.0
2016-Jan-19 12:32N 45°38' W 122°43'0 0.0
2016-Jan-19 11:20N 45°38' W 122°43'0 0.0
2016-Jan-19 10:15N 45°38' W 122°43'0 0.0
2016-Jan-19 09:19N 45°38' W 122°43'0 0.0
2016-Jan-19 08:28N 45°38' W 122°43'0 0.0
2016-Jan-19 07:29N 45°38' W 122°43'0 0.0
2016-Jan-19 06:29N 45°38' W 122°43'0 0.0
2016-Jan-19 05:30N 45°38' W 122°43'0 0.0
2016-Jan-19 04:34N 45°38' W 122°43'0 0.0
2016-Jan-19 03:31N 45°38' W 122°43'0 0.0
2016-Jan-19 02:26N 45°38' W 122°43'0 0.0
2016-Jan-19 01:26N 45°38' W 122°43'0 0.0
2016-Jan-19 00:33N 45°38' W 122°43'0 0.0
2016-Jan-18 23:31N 45°38' W 122°43'0 0.0
2016-Jan-18 22:28N 45°38' W 122°43'0 0.0
2016-Jan-18 21:23N 45°38' W 122°43'0 0.0
2016-Jan-18 20:24N 45°38' W 122°43'0 0.0
2016-Jan-18 19:30N 45°38' W 122°43'0 0.0
2016-Jan-18 18:31N 45°38' W 122°43'0 0.0
2016-Jan-18 17:31N 45°38' W 122°43'0 0.0
2016-Jan-18 16:32N 45°38' W 122°43'0 0.0
2016-Jan-18 15:29N 45°38' W 122°43'0 0.0
2016-Jan-18 14:33N 45°38' W 122°43'0 0.0
2016-Jan-18 13:28N 45°38' W 122°43'0 0.0
2016-Jan-18 12:31N 45°38' W 122°43'0 0.0
2016-Jan-18 11:32N 45°38' W 122°43'0 0.0
2016-Jan-18 10:29N 45°38' W 122°43'0 0.0
2016-Jan-18 09:33N 45°38' W 122°43'0 0.0
2016-Jan-18 08:31N 45°38' W 122°43'0 0.0
2016-Jan-18 07:28N 45°38' W 122°43'0 0.0
2016-Jan-18 06:26N 45°38' W 122°43'0 0.0
2016-Jan-18 05:33N 45°38' W 122°43'0 0.0
2016-Jan-18 04:33N 45°38' W 122°43'0 0.0
2016-Jan-18 03:28N 45°38' W 122°43'0 0.0
2016-Jan-18 02:28N 45°38' W 122°43'0 0.0
2016-Jan-18 01:32N 45°38' W 122°43'0 0.0
2016-Jan-18 00:27N 45°38' W 122°43'0 0.0
2016-Jan-17 23:33N 45°38' W 122°43'0 0.0
2016-Jan-17 22:25N 45°38' W 122°43'0 0.0
2016-Jan-17 21:31N 45°38' W 122°43'0 0.0
2016-Jan-17 19:33N 45°38' W 122°43'0 0.0
2016-Jan-17 18:33N 45°38' W 122°43'0 0.0
2016-Jan-17 17:22N 45°38' W 122°43'0 0.0
2016-Jan-17 16:31N 45°38' W 122°43'0 0.0
2016-Jan-17 15:23N 45°38' W 122°43'0 0.0
2016-Jan-17 14:30N 45°38' W 122°43'0 0.0
2016-Jan-17 13:27N 45°38' W 122°43'0 0.0
2016-Jan-17 12:28N 45°38' W 122°43'0 0.0
2016-Jan-17 11:31N 45°38' W 122°43'0 0.0
2016-Jan-17 10:32N 45°38' W 122°43'0 0.0
2016-Jan-17 09:33N 45°38' W 122°43'0 0.0
2016-Jan-17 08:30N 45°38' W 122°43'0 0.0
2016-Jan-17 07:31N 45°38' W 122°43'0 0.0
2016-Jan-17 06:32N 45°38' W 122°43'0 0.0
2016-Jan-17 05:32N 45°38' W 122°43'0 0.0
2016-Jan-17 04:33N 45°38' W 122°43'0 0.0
2016-Jan-17 03:33N 45°38' W 122°43'0 0.0
2016-Jan-17 02:25N 45°38' W 122°43'  

Dump ship's entire track history